createdAt,value
2022-09-27T00:00:58.192Z,963.45
2022-09-27T00:01:58.214Z,963.45
2022-09-27T00:02:58.248Z,963.45
2022-09-27T00:03:58.133Z,963.42
2022-09-27T00:04:58.123Z,963.42
2022-09-27T00:05:58.133Z,963.39
2022-09-27T00:06:58.122Z,963.37
2022-09-27T00:07:58.132Z,963.39
2022-09-27T00:08:58.113Z,963.40
2022-09-27T00:09:58.086Z,963.39
2022-09-27T00:10:58.107Z,963.38
2022-09-27T00:11:58.099Z,963.41
2022-09-27T00:12:58.080Z,963.37
2022-09-27T00:13:58.094Z,963.36
2022-09-27T00:14:58.061Z,963.38
2022-09-27T00:15:58.132Z,963.33
2022-09-27T00:16:58.057Z,963.28
2022-09-27T00:17:58.041Z,963.33
2022-09-27T00:18:58.052Z,963.34
2022-09-27T00:19:58.027Z,963.30
2022-09-27T00:20:58.019Z,963.32
2022-09-27T00:21:58.028Z,963.32
2022-09-27T00:22:58.041Z,963.32
2022-09-27T00:23:57.997Z,963.36
2022-09-27T00:24:57.987Z,963.34
2022-09-27T00:25:57.981Z,963.30
2022-09-27T00:26:57.970Z,963.28
2022-09-27T00:27:57.977Z,963.27
2022-09-27T00:28:57.979Z,963.27
2022-09-27T00:29:57.951Z,963.26
2022-09-27T00:30:57.967Z,963.23
2022-09-27T00:31:57.945Z,963.25
2022-09-27T00:32:57.941Z,963.25
2022-09-27T00:33:57.954Z,963.22
2022-09-27T00:34:57.916Z,963.23
2022-09-27T00:35:57.899Z,963.21
2022-09-27T00:36:57.912Z,963.21
2022-09-27T00:37:57.885Z,963.20
2022-09-27T00:38:57.884Z,963.17
2022-09-27T00:39:57.900Z,963.17
2022-09-27T00:40:57.951Z,963.15
2022-09-27T00:41:57.887Z,963.16
2022-09-27T00:42:57.856Z,963.14
2022-09-27T00:43:57.844Z,963.21
2022-09-27T00:44:57.841Z,963.15
2022-09-27T00:45:57.964Z,963.16
2022-09-27T00:46:57.831Z,963.15
2022-09-27T00:47:57.840Z,963.12
2022-09-27T00:48:57.825Z,963.08
2022-09-27T00:49:57.799Z,963.05
2022-09-27T00:50:57.795Z,963.04
2022-09-27T00:51:57.815Z,963.03
2022-09-27T00:52:57.790Z,962.99
2022-09-27T00:53:57.780Z,963.00
2022-09-27T00:54:57.776Z,962.98
2022-09-27T00:55:57.783Z,962.97
2022-09-27T00:56:57.764Z,962.97
2022-09-27T00:57:57.754Z,962.92
2022-09-27T00:58:57.745Z,962.93
2022-09-27T00:59:57.741Z,962.94
2022-09-27T01:00:57.790Z,962.94
2022-09-27T01:01:57.821Z,962.94
2022-09-27T01:02:57.774Z,962.94
2022-09-27T01:03:57.735Z,962.91
2022-09-27T01:04:57.706Z,962.92
2022-09-27T01:05:57.698Z,962.92
2022-09-27T01:06:57.702Z,962.95
2022-09-27T01:07:57.679Z,962.92
2022-09-27T01:08:57.670Z,962.93
2022-09-27T01:09:57.687Z,962.94
2022-09-27T01:10:57.670Z,962.91
2022-09-27T01:11:57.664Z,962.89
2022-09-27T01:12:57.653Z,962.88
2022-09-27T01:13:57.644Z,962.89
2022-09-27T01:14:57.634Z,962.87
2022-09-27T01:15:57.690Z,962.87
2022-09-27T01:16:57.650Z,962.87
2022-09-27T01:17:57.625Z,962.86
2022-09-27T01:18:57.634Z,962.88
2022-09-27T01:19:57.602Z,962.89
2022-09-27T01:20:57.618Z,962.89
2022-09-27T01:21:57.581Z,962.90
2022-09-27T01:22:57.583Z,962.90
2022-09-27T01:23:57.565Z,962.90
2022-09-27T01:24:57.576Z,962.89
2022-09-27T01:25:57.552Z,962.88
2022-09-27T01:26:57.544Z,962.88
2022-09-27T01:27:57.558Z,962.87
2022-09-27T01:28:57.535Z,962.85
2022-09-27T01:29:57.529Z,962.85
2022-09-27T01:30:57.609Z,962.84
2022-09-27T01:31:57.516Z,962.84
2022-09-27T01:32:57.515Z,962.84
2022-09-27T01:33:57.517Z,962.82
2022-09-27T01:34:57.493Z,962.82
2022-09-27T01:35:57.524Z,962.83
2022-09-27T01:36:57.498Z,962.81
2022-09-27T01:37:57.482Z,962.80
2022-09-27T01:38:57.495Z,962.81
2022-09-27T01:39:57.460Z,962.81
2022-09-27T01:40:57.536Z,962.80
2022-09-27T01:41:57.463Z,962.80
2022-09-27T01:42:57.435Z,962.81
2022-09-27T01:43:57.433Z,962.80
2022-09-27T01:44:57.424Z,962.78
2022-09-27T01:45:57.478Z,962.78
2022-09-27T01:46:57.435Z,962.77
2022-09-27T01:47:57.401Z,962.75
2022-09-27T01:48:57.421Z,962.73
2022-09-27T01:49:57.451Z,962.73
2022-09-27T01:50:57.393Z,962.74
2022-09-27T01:51:57.409Z,962.72
2022-09-27T01:52:57.373Z,962.72
2022-09-27T01:53:57.370Z,962.71
2022-09-27T01:54:57.360Z,962.70
2022-09-27T01:55:57.366Z,962.68
2022-09-27T01:56:57.342Z,962.68
2022-09-27T01:57:57.340Z,962.66
2022-09-27T01:58:57.336Z,962.66
2022-09-27T01:59:57.324Z,962.66
2022-09-27T02:00:57.412Z,962.67
2022-09-27T02:01:57.374Z,962.66
2022-09-27T02:02:57.373Z,962.67
2022-09-27T02:03:57.304Z,962.67
2022-09-27T02:04:57.291Z,962.66
2022-09-27T02:05:57.311Z,962.65
2022-09-27T02:06:57.284Z,962.65
2022-09-27T02:07:57.270Z,962.66
2022-09-27T02:08:57.264Z,962.65
2022-09-27T02:09:57.257Z,962.65
2022-09-27T02:10:57.254Z,962.64
2022-09-27T02:11:57.272Z,962.64
2022-09-27T02:12:57.245Z,962.62
2022-09-27T02:13:57.230Z,962.63
2022-09-27T02:14:57.229Z,962.60
2022-09-27T02:15:57.305Z,962.61
2022-09-27T02:16:57.222Z,962.58
2022-09-27T02:17:57.209Z,962.59
2022-09-27T02:18:57.224Z,962.57
2022-09-27T02:19:57.191Z,962.56
2022-09-27T02:20:57.189Z,962.56
2022-09-27T02:21:57.182Z,962.56
2022-09-27T02:22:57.172Z,962.56
2022-09-27T02:23:57.188Z,962.54
2022-09-27T02:24:57.154Z,962.55
2022-09-27T02:25:57.161Z,962.53
2022-09-27T02:26:57.145Z,962.54
2022-09-27T02:27:57.142Z,962.52
2022-09-27T02:28:57.146Z,962.51
2022-09-27T02:29:57.155Z,962.49
2022-09-27T02:30:57.160Z,962.49
2022-09-27T02:31:57.114Z,962.49
2022-09-27T02:32:57.114Z,962.48
2022-09-27T02:33:57.101Z,962.50
2022-09-27T02:34:57.124Z,962.50
2022-09-27T02:35:57.093Z,962.52
2022-09-27T02:36:57.085Z,962.51
2022-09-27T02:37:57.075Z,962.53
2022-09-27T02:38:57.079Z,962.52
2022-09-27T02:39:57.085Z,962.54
2022-09-27T02:40:57.131Z,962.53
2022-09-27T02:41:57.063Z,962.53
2022-09-27T02:42:57.047Z,962.54
2022-09-27T02:43:57.060Z,962.53
2022-09-27T02:44:57.045Z,962.54
2022-09-27T02:45:57.108Z,962.54
2022-09-27T02:46:57.072Z,962.56
2022-09-27T02:47:57.021Z,962.54
2022-09-27T02:48:57.009Z,962.53
2022-09-27T02:49:57.019Z,962.53
2022-09-27T02:50:57.003Z,962.53
2022-09-27T02:51:57.005Z,962.55
2022-09-27T02:52:57.016Z,962.54
2022-09-27T02:53:56.997Z,962.55
2022-09-27T02:54:57.004Z,962.56
2022-09-27T02:55:56.979Z,962.58
2022-09-27T02:56:57.011Z,962.58
2022-09-27T02:57:56.987Z,962.58
2022-09-27T02:58:56.950Z,962.58
2022-09-27T02:59:56.953Z,962.57
2022-09-27T03:00:57.065Z,962.56
2022-09-27T03:01:57.014Z,962.58
2022-09-27T03:02:57.028Z,962.57
2022-09-27T03:03:56.920Z,962.58
2022-09-27T03:04:56.918Z,962.54
2022-09-27T03:05:56.921Z,962.55
2022-09-27T03:06:56.897Z,962.55
2022-09-27T03:07:56.890Z,962.55
2022-09-27T03:08:56.922Z,962.54
2022-09-27T03:09:56.893Z,962.53
2022-09-27T03:10:56.907Z,962.54
2022-09-27T03:11:56.866Z,962.55
2022-09-27T03:12:56.863Z,962.56
2022-09-27T03:14:08.367Z,962.57
2022-09-27T03:14:57.870Z,962.57
2022-09-27T03:16:01.276Z,962.59
2022-09-27T03:16:56.921Z,962.59
2022-09-27T03:17:56.850Z,962.60
2022-09-27T03:18:56.822Z,962.60
2022-09-27T03:19:56.814Z,962.62
2022-09-27T03:20:56.807Z,962.64
2022-09-27T03:21:56.806Z,962.63
2022-09-27T03:22:56.821Z,962.64
2022-09-27T03:23:56.782Z,962.63
2022-09-27T03:24:56.775Z,962.65
2022-09-27T03:25:56.802Z,962.66
2022-09-27T03:26:56.806Z,962.64
2022-09-27T03:27:56.781Z,962.64
2022-09-27T03:28:56.778Z,962.63
2022-09-27T03:29:56.755Z,962.64
2022-09-27T03:30:56.781Z,962.63
2022-09-27T03:31:56.742Z,962.63
2022-09-27T03:32:56.773Z,962.61
2022-09-27T03:33:56.717Z,962.61
2022-09-27T03:34:56.725Z,962.61
2022-09-27T03:35:56.706Z,962.60
2022-09-27T03:36:56.729Z,962.62
2022-09-27T03:37:56.702Z,962.62
2022-09-27T03:38:56.713Z,962.62
2022-09-27T03:39:56.684Z,962.62
2022-09-27T03:40:56.730Z,962.63
2022-09-27T03:41:56.669Z,962.61
2022-09-27T03:42:56.666Z,962.60
2022-09-27T03:43:56.675Z,962.63
2022-09-27T03:44:56.670Z,962.62
2022-09-27T03:45:56.704Z,962.61
2022-09-27T03:46:56.641Z,962.61
2022-09-27T03:47:56.649Z,962.60
2022-09-27T03:48:56.619Z,962.59
2022-09-27T03:49:56.619Z,962.58
2022-09-27T03:50:56.640Z,962.59
2022-09-27T03:51:56.618Z,962.59
2022-09-27T03:52:56.624Z,962.60
2022-09-27T03:53:56.610Z,962.58
2022-09-27T03:55:01.794Z,962.63
2022-09-27T03:55:57.583Z,962.61
2022-09-27T03:56:56.585Z,962.62
2022-09-27T03:57:56.577Z,962.61
2022-09-27T03:58:56.583Z,962.59
2022-09-27T03:59:56.574Z,962.59
2022-09-27T04:00:56.605Z,962.61
2022-09-27T04:01:56.619Z,962.60
2022-09-27T04:02:56.570Z,962.59
2022-09-27T04:03:56.557Z,962.59
2022-09-27T04:04:56.528Z,962.61
2022-09-27T04:05:56.523Z,962.61
2022-09-27T04:06:56.541Z,962.62
2022-09-27T04:07:56.517Z,962.61
2022-09-27T04:08:56.509Z,962.62
2022-09-27T04:09:56.491Z,962.62
2022-09-27T04:10:56.516Z,962.62
2022-09-27T04:11:56.478Z,962.62
2022-09-27T04:12:56.480Z,962.64
2022-09-27T04:13:56.491Z,962.63
2022-09-27T04:14:56.471Z,962.64
2022-09-27T04:15:56.463Z,962.65
2022-09-27T04:16:56.545Z,962.67
2022-09-27T04:17:56.467Z,962.68
2022-09-27T04:18:56.442Z,962.67
2022-09-27T04:19:56.450Z,962.67
2022-09-27T04:20:56.436Z,962.66
2022-09-27T04:21:56.420Z,962.67
2022-09-27T04:22:56.429Z,962.66
2022-09-27T04:23:56.420Z,962.67
2022-09-27T04:24:56.426Z,962.67
2022-09-27T04:25:56.391Z,962.68
2022-09-27T04:26:56.403Z,962.70
2022-09-27T04:27:56.376Z,962.71
2022-09-27T04:28:56.370Z,962.75
2022-09-27T04:29:56.369Z,962.77
2022-09-27T04:30:56.454Z,962.73
2022-09-27T04:31:56.350Z,962.79
2022-09-27T04:32:56.355Z,962.80
2022-09-27T04:33:56.348Z,962.81
2022-09-27T04:34:56.335Z,962.83
2022-09-27T04:35:56.330Z,962.84
2022-09-27T04:36:56.345Z,962.85
2022-09-27T04:37:56.324Z,962.87
2022-09-27T04:38:56.310Z,962.88
2022-09-27T04:39:56.299Z,962.91
2022-09-27T04:40:56.404Z,962.94
2022-09-27T04:41:56.297Z,962.93
2022-09-27T04:42:56.300Z,962.94
2022-09-27T04:43:59.200Z,962.98
2022-09-27T04:44:56.270Z,962.99
2022-09-27T04:45:56.292Z,963.01
2022-09-27T04:46:56.338Z,963.02
2022-09-27T04:47:56.254Z,963.05
2022-09-27T04:48:56.247Z,963.07
2022-09-27T04:49:56.233Z,963.09
2022-09-27T04:50:56.258Z,963.09
2022-09-27T04:51:56.225Z,963.12
2022-09-27T04:52:56.223Z,963.10
2022-09-27T04:53:56.227Z,963.11
2022-09-27T04:54:56.209Z,963.14
2022-09-27T04:55:56.193Z,963.15
2022-09-27T04:56:56.190Z,963.18
2022-09-27T04:57:56.186Z,963.16
2022-09-27T04:58:56.170Z,963.18
2022-09-27T04:59:56.180Z,963.20
2022-09-27T05:00:56.351Z,963.22
2022-09-27T05:01:56.208Z,963.22
2022-09-27T05:02:56.211Z,963.22
2022-09-27T05:03:56.168Z,963.24
2022-09-27T05:05:03.147Z,963.24
2022-09-27T05:05:56.129Z,963.24
2022-09-27T05:06:57.283Z,963.26
2022-09-27T05:07:56.116Z,963.26
2022-09-27T05:08:56.108Z,963.28
2022-09-27T05:09:56.096Z,963.29
2022-09-27T05:10:56.103Z,963.29
2022-09-27T05:11:56.088Z,963.32
2022-09-27T05:12:56.101Z,963.30
2022-09-27T05:13:56.073Z,963.35
2022-09-27T05:14:56.063Z,963.35
2022-09-27T05:15:56.057Z,963.37
2022-09-27T05:16:56.091Z,963.38
2022-09-27T05:17:56.044Z,963.38
2022-09-27T05:18:56.041Z,963.41
2022-09-27T05:19:56.043Z,963.42
2022-09-27T05:20:56.027Z,963.40
2022-09-27T05:21:56.012Z,963.41
2022-09-27T05:22:56.039Z,963.41
2022-09-27T05:23:56.003Z,963.42
2022-09-27T05:24:56.005Z,963.40
2022-09-27T05:25:55.986Z,963.42
2022-09-27T05:26:55.984Z,963.44
2022-09-27T05:27:55.973Z,963.43
2022-09-27T05:28:55.992Z,963.44
2022-09-27T05:29:55.969Z,963.44
2022-09-27T05:30:56.002Z,963.45
2022-09-27T05:31:55.948Z,963.47
2022-09-27T05:32:55.967Z,963.48
2022-09-27T05:33:55.938Z,963.48
2022-09-27T05:34:55.943Z,963.50
2022-09-27T05:35:55.921Z,963.51
2022-09-27T05:36:55.917Z,963.52
2022-09-27T05:37:55.935Z,963.53
2022-09-27T05:38:55.904Z,963.54
2022-09-27T05:39:55.901Z,963.55
2022-09-27T05:40:55.938Z,963.57
2022-09-27T05:41:55.904Z,963.57
2022-09-27T05:42:55.880Z,963.56
2022-09-27T05:43:55.871Z,963.55
2022-09-27T05:44:55.863Z,963.57
2022-09-27T05:45:55.939Z,963.58
2022-09-27T05:46:55.851Z,963.60
2022-09-27T05:47:55.837Z,963.62
2022-09-27T05:48:55.835Z,963.64
2022-09-27T05:49:55.841Z,963.65
2022-09-27T05:50:55.846Z,963.68
2022-09-27T05:51:55.817Z,963.68
2022-09-27T05:52:55.807Z,963.69
2022-09-27T05:53:55.804Z,963.73
2022-09-27T05:54:55.794Z,963.75
2022-09-27T05:55:55.785Z,963.75
2022-09-27T05:56:55.793Z,963.74
2022-09-27T05:57:57.277Z,963.76
2022-09-27T05:58:55.768Z,963.76
2022-09-27T05:59:55.755Z,963.76
2022-09-27T06:00:55.749Z,963.77
2022-09-27T06:01:55.831Z,963.76
2022-09-27T06:02:55.787Z,963.77
2022-09-27T06:03:55.755Z,963.77
2022-09-27T06:04:55.723Z,963.76
2022-09-27T06:05:55.710Z,963.79
2022-09-27T06:06:55.704Z,963.79
2022-09-27T06:07:55.700Z,963.80
2022-09-27T06:08:55.759Z,963.81
2022-09-27T06:09:55.677Z,963.82
2022-09-27T06:10:55.669Z,963.84
2022-09-27T06:11:55.665Z,963.84
2022-09-27T06:12:55.665Z,963.84
2022-09-27T06:13:55.680Z,963.87
2022-09-27T06:14:55.656Z,963.87
2022-09-27T06:15:55.663Z,963.88
2022-09-27T06:16:55.679Z,963.90
2022-09-27T06:17:55.633Z,963.91
2022-09-27T06:18:55.637Z,963.91
2022-09-27T06:19:55.631Z,963.93
2022-09-27T06:20:55.609Z,963.95
2022-09-27T06:21:55.635Z,963.97
2022-09-27T06:22:55.610Z,963.98
2022-09-27T06:23:55.602Z,964.02
2022-09-27T06:24:55.591Z,964.00
2022-09-27T06:25:55.570Z,964.01
2022-09-27T06:26:55.600Z,964.01
2022-09-27T06:27:55.562Z,964.04
2022-09-27T06:28:55.561Z,964.04
2022-09-27T06:29:55.565Z,964.06
2022-09-27T06:30:55.567Z,964.08
2022-09-27T06:31:55.595Z,964.11
2022-09-27T06:32:55.531Z,964.12
2022-09-27T06:33:55.528Z,964.13
2022-09-27T06:34:55.519Z,964.13
2022-09-27T06:35:55.509Z,964.14
2022-09-27T06:36:55.507Z,964.16
2022-09-27T06:37:55.519Z,964.19
2022-09-27T06:38:55.525Z,964.20
2022-09-27T06:39:55.481Z,964.22
2022-09-27T06:40:55.528Z,964.25
2022-09-27T06:41:55.469Z,964.26
2022-09-27T06:42:55.495Z,964.30
2022-09-27T06:43:55.487Z,964.30
2022-09-27T06:44:55.454Z,964.32
2022-09-27T06:45:55.461Z,964.36
2022-09-27T06:46:55.440Z,964.36
2022-09-27T06:47:55.438Z,964.33
2022-09-27T06:48:55.428Z,964.36
2022-09-27T06:49:55.442Z,964.41
2022-09-27T06:50:55.412Z,964.42
2022-09-27T06:51:55.407Z,964.44
2022-09-27T06:52:55.402Z,964.44
2022-09-27T06:53:55.389Z,964.45
2022-09-27T06:54:55.389Z,964.46
2022-09-27T06:55:55.399Z,964.45
2022-09-27T06:56:57.912Z,964.45
2022-09-27T06:57:56.359Z,964.44
2022-09-27T06:58:55.357Z,964.46
2022-09-27T06:59:55.344Z,964.48
2022-09-27T07:00:55.474Z,964.50
2022-09-27T07:01:55.375Z,964.53
2022-09-27T07:02:55.346Z,964.56
2022-09-27T07:03:55.321Z,964.56
2022-09-27T07:04:55.312Z,964.57
2022-09-27T07:05:55.302Z,964.56
2022-09-27T07:06:55.318Z,964.58
2022-09-27T07:07:55.281Z,964.58
2022-09-27T07:08:55.273Z,964.59
2022-09-27T07:09:55.294Z,964.60
2022-09-27T07:10:55.262Z,964.63
2022-09-27T07:11:55.274Z,964.63
2022-09-27T07:12:55.241Z,964.67
2022-09-27T07:13:55.242Z,964.71
2022-09-27T07:14:55.232Z,964.72
2022-09-27T07:15:55.222Z,964.73
2022-09-27T07:16:55.245Z,964.74
2022-09-27T07:17:55.258Z,964.74
2022-09-27T07:18:55.212Z,964.73
2022-09-27T07:19:55.508Z,964.75
2022-09-27T07:20:59.913Z,964.75
2022-09-27T07:21:56.177Z,964.80
2022-09-27T07:22:55.175Z,964.80
2022-09-27T07:23:55.182Z,964.83
2022-09-27T07:24:55.159Z,964.84
2022-09-27T07:25:55.154Z,964.88
2022-09-27T07:26:55.145Z,964.88
2022-09-27T07:27:55.137Z,964.88
2022-09-27T07:28:55.132Z,964.88
2022-09-27T07:29:55.142Z,964.90
2022-09-27T07:30:55.162Z,964.89
2022-09-27T07:31:55.113Z,964.93
2022-09-27T07:32:55.108Z,964.97
2022-09-27T07:33:55.097Z,964.99
2022-09-27T07:34:55.109Z,964.97
2022-09-27T07:35:55.085Z,964.97
2022-09-27T07:36:55.108Z,964.99
2022-09-27T07:37:55.079Z,964.98
2022-09-27T07:38:55.072Z,965.01
2022-09-27T07:39:55.059Z,965.02
2022-09-27T07:40:55.092Z,965.03
2022-09-27T07:41:55.045Z,965.00
2022-09-27T07:42:55.038Z,964.99
2022-09-27T07:43:55.029Z,965.03
2022-09-27T07:44:55.041Z,965.04
2022-09-27T07:45:55.043Z,965.04
2022-09-27T07:46:55.045Z,965.07
2022-09-27T07:47:55.040Z,965.04
2022-09-27T07:48:55.008Z,965.05
2022-09-27T07:49:54.997Z,965.10
2022-09-27T07:50:54.994Z,965.07
2022-09-27T07:51:54.985Z,965.11
2022-09-27T07:52:55.029Z,965.11
2022-09-27T07:53:54.968Z,965.13
2022-09-27T07:54:54.956Z,965.10
2022-09-27T07:55:54.957Z,965.15
2022-09-27T07:56:54.940Z,965.16
2022-09-27T07:57:54.940Z,965.14
2022-09-27T07:58:54.951Z,965.17
2022-09-27T07:59:54.928Z,965.18
2022-09-27T08:00:54.981Z,965.17
2022-09-27T08:01:54.939Z,965.19
2022-09-27T08:02:54.910Z,965.19
2022-09-27T08:03:54.903Z,965.21
2022-09-27T08:04:54.900Z,965.27
2022-09-27T08:05:54.879Z,965.26
2022-09-27T08:06:54.903Z,965.28
2022-09-27T08:07:54.861Z,965.27
2022-09-27T08:08:54.857Z,965.27
2022-09-27T08:09:54.873Z,965.30
2022-09-27T08:10:54.841Z,965.31
2022-09-27T08:11:54.847Z,965.34
2022-09-27T08:12:54.841Z,965.35
2022-09-27T08:13:54.826Z,965.37
2022-09-27T08:14:54.809Z,965.40
2022-09-27T08:15:54.831Z,965.41
2022-09-27T08:16:54.837Z,965.38
2022-09-27T08:17:54.809Z,965.43
2022-09-27T08:18:54.782Z,965.46
2022-09-27T08:19:54.805Z,965.46
2022-09-27T08:20:54.793Z,965.43
2022-09-27T08:21:58.714Z,965.45
2022-09-27T08:22:54.750Z,965.48
2022-09-27T08:23:54.742Z,965.47
2022-09-27T08:24:54.747Z,965.50
2022-09-27T08:25:54.764Z,965.53
2022-09-27T08:26:54.720Z,965.55
2022-09-27T08:27:54.708Z,965.57
2022-09-27T08:28:54.728Z,965.59
2022-09-27T08:29:54.697Z,965.59
2022-09-27T08:30:54.694Z,965.55
2022-09-27T08:31:54.814Z,965.60
2022-09-27T08:32:54.671Z,965.60
2022-09-27T08:33:54.660Z,965.64
2022-09-27T08:34:54.663Z,965.62
2022-09-27T08:35:54.643Z,965.64
2022-09-27T08:36:54.636Z,965.67
2022-09-27T08:37:54.654Z,965.69
2022-09-27T08:38:54.615Z,965.68
2022-09-27T08:39:54.614Z,965.70
2022-09-27T08:40:54.770Z,965.69
2022-09-27T08:41:54.626Z,965.69
2022-09-27T08:42:54.589Z,965.70
2022-09-27T08:43:54.587Z,965.71
2022-09-27T08:44:54.572Z,965.66
2022-09-27T08:45:54.592Z,965.68
2022-09-27T08:46:54.584Z,965.67
2022-09-27T08:47:54.543Z,965.69
2022-09-27T08:48:54.558Z,965.72
2022-09-27T08:49:54.594Z,965.74
2022-09-27T08:50:54.542Z,965.76
2022-09-27T08:51:54.521Z,965.78
2022-09-27T08:52:54.515Z,965.78
2022-09-27T08:53:54.522Z,965.74
2022-09-27T08:54:54.495Z,965.79
2022-09-27T08:55:54.547Z,965.77
2022-09-27T08:56:54.473Z,965.79
2022-09-27T08:57:54.468Z,965.78
2022-09-27T08:58:54.458Z,965.77
2022-09-27T08:59:54.461Z,965.82
2022-09-27T09:00:54.480Z,965.81
2022-09-27T09:01:54.520Z,965.87
2022-09-27T09:02:54.429Z,965.85
2022-09-27T09:03:54.431Z,965.85
2022-09-27T09:04:54.440Z,965.92
2022-09-27T09:05:54.401Z,965.88
2022-09-27T09:06:54.399Z,965.88
2022-09-27T09:07:54.381Z,965.89
2022-09-27T09:08:54.372Z,965.91
2022-09-27T09:09:54.367Z,965.93
2022-09-27T09:10:54.394Z,965.94
2022-09-27T09:11:54.361Z,965.93
2022-09-27T09:12:54.357Z,965.98
2022-09-27T09:13:54.355Z,965.98
2022-09-27T09:14:54.336Z,965.97
2022-09-27T09:15:54.401Z,965.99
2022-09-27T09:16:54.331Z,966.02
2022-09-27T09:17:54.303Z,966.03
2022-09-27T09:18:54.300Z,966.03
2022-09-27T09:19:54.289Z,966.02
2022-09-27T09:20:54.309Z,966.04
2022-09-27T09:21:54.268Z,966.06
2022-09-27T09:22:54.265Z,966.05
2022-09-27T09:23:54.270Z,966.08
2022-09-27T09:24:54.257Z,966.06
2022-09-27T09:25:54.242Z,966.08
2022-09-27T09:26:54.261Z,966.09
2022-09-27T09:27:56.139Z,966.10
2022-09-27T09:28:54.228Z,966.11
2022-09-27T09:29:54.232Z,966.11
2022-09-27T09:30:54.190Z,966.11
2022-09-27T09:31:54.272Z,966.09
2022-09-27T09:32:54.174Z,966.11
2022-09-27T09:33:54.185Z,966.13
2022-09-27T09:34:54.159Z,966.15
2022-09-27T09:35:54.145Z,966.05
2022-09-27T09:36:54.142Z,966.13
2022-09-27T09:37:54.130Z,966.11
2022-09-27T09:38:54.122Z,966.11
2022-09-27T09:39:54.130Z,966.09
2022-09-27T09:40:54.151Z,966.10
2022-09-27T09:41:54.126Z,966.12
2022-09-27T09:42:54.095Z,966.12
2022-09-27T09:43:54.088Z,966.13
2022-09-27T09:44:54.085Z,966.14
2022-09-27T09:45:54.213Z,966.16
2022-09-27T09:46:54.076Z,966.15
2022-09-27T09:47:54.051Z,966.16
2022-09-27T09:48:54.046Z,966.15
2022-09-27T09:49:54.036Z,966.14
2022-09-27T09:50:54.041Z,966.15
2022-09-27T09:51:54.054Z,966.14
2022-09-27T09:52:54.018Z,966.11
2022-09-27T09:53:53.996Z,966.10
2022-09-27T09:54:53.999Z,966.10
2022-09-27T09:55:53.991Z,966.08
2022-09-27T09:56:54.004Z,966.11
2022-09-27T09:57:53.974Z,966.08
2022-09-27T09:58:53.968Z,966.11
2022-09-27T09:59:53.965Z,966.10
2022-09-27T10:00:53.966Z,966.10
2022-09-27T10:01:54.005Z,966.11
2022-09-27T10:02:53.940Z,966.11
2022-09-27T10:03:53.918Z,966.12
2022-09-27T10:04:53.904Z,966.12
2022-09-27T10:05:53.908Z,966.11
2022-09-27T10:06:53.915Z,966.12
2022-09-27T10:07:53.890Z,966.10
2022-09-27T10:08:53.886Z,966.13
2022-09-27T10:09:53.862Z,966.14
2022-09-27T10:10:53.881Z,966.15
2022-09-27T10:11:53.848Z,966.14
2022-09-27T10:12:53.878Z,966.15
2022-09-27T10:13:53.836Z,966.16
2022-09-27T10:14:53.853Z,966.18
2022-09-27T10:15:53.823Z,966.19
2022-09-27T10:16:53.812Z,966.17
2022-09-27T10:17:53.809Z,966.17
2022-09-27T10:18:53.799Z,966.17
2022-09-27T10:19:53.802Z,966.19
2022-09-27T10:20:53.779Z,966.21
2022-09-27T10:21:53.772Z,966.24
2022-09-27T10:22:53.755Z,966.22
2022-09-27T10:23:53.752Z,966.20
2022-09-27T10:24:53.750Z,966.23
2022-09-27T10:25:53.752Z,966.24
2022-09-27T10:26:53.724Z,966.26
2022-09-27T10:27:53.718Z,966.26
2022-09-27T10:28:53.717Z,966.23
2022-09-27T10:29:53.700Z,966.30
2022-09-27T10:30:53.685Z,966.26
2022-09-27T10:31:53.752Z,966.26
2022-09-27T10:32:53.679Z,966.29
2022-09-27T10:33:53.662Z,966.31
2022-09-27T10:34:53.663Z,966.29
2022-09-27T10:35:53.650Z,966.31
2022-09-27T10:36:53.651Z,966.32
2022-09-27T10:37:53.660Z,966.34
2022-09-27T10:38:53.632Z,966.31
2022-09-27T10:39:53.627Z,966.31
2022-09-27T10:40:53.662Z,966.31
2022-09-27T10:41:53.605Z,966.33
2022-09-27T10:42:53.603Z,966.27
2022-09-27T10:43:53.610Z,966.28
2022-09-27T10:44:53.586Z,966.34
2022-09-27T10:45:53.618Z,966.26
2022-09-27T10:46:53.572Z,966.28
2022-09-27T10:47:53.561Z,966.28
2022-09-27T10:48:53.548Z,966.27
2022-09-27T10:49:53.562Z,966.31
2022-09-27T10:50:55.780Z,966.35
2022-09-27T10:51:53.544Z,966.31
2022-09-27T10:52:53.517Z,966.32
2022-09-27T10:53:53.507Z,966.39
2022-09-27T10:54:53.503Z,966.35
2022-09-27T10:55:53.483Z,966.35
2022-09-27T10:56:53.482Z,966.33
2022-09-27T10:57:53.494Z,966.33
2022-09-27T10:58:53.472Z,966.32
2022-09-27T10:59:53.466Z,966.31
2022-09-27T11:00:53.460Z,966.28
2022-09-27T11:01:53.443Z,966.31
2022-09-27T11:02:53.461Z,966.30
2022-09-27T11:03:53.435Z,966.34
2022-09-27T11:04:53.435Z,966.28
2022-09-27T11:05:53.428Z,966.31
2022-09-27T11:06:53.399Z,966.38
2022-09-27T11:07:53.402Z,966.34
2022-09-27T11:08:53.401Z,966.35
2022-09-27T11:09:53.378Z,966.34
2022-09-27T11:10:53.376Z,966.36
2022-09-27T11:11:53.355Z,966.34
2022-09-27T11:12:53.379Z,966.35
2022-09-27T11:13:53.339Z,966.42
2022-09-27T11:14:53.356Z,966.37
2022-09-27T11:15:53.371Z,966.37
2022-09-27T11:16:53.313Z,966.37
2022-09-27T11:17:53.310Z,966.36
2022-09-27T11:18:53.302Z,966.36
2022-09-27T11:19:53.294Z,966.35
2022-09-27T11:20:53.303Z,966.39
2022-09-27T11:21:53.290Z,966.39
2022-09-27T11:22:53.271Z,966.36
2022-09-27T11:23:53.262Z,966.35
2022-09-27T11:24:53.254Z,966.34
2022-09-27T11:25:53.247Z,966.34
2022-09-27T11:26:53.262Z,966.36
2022-09-27T11:27:53.228Z,966.36
2022-09-27T11:28:53.246Z,966.34
2022-09-27T11:29:53.212Z,966.40
2022-09-27T11:30:53.213Z,966.37
2022-09-27T11:31:53.245Z,966.36
2022-09-27T11:32:53.208Z,966.37
2022-09-27T11:33:53.176Z,966.38
2022-09-27T11:34:53.167Z,966.36
2022-09-27T11:35:53.185Z,966.37
2022-09-27T11:36:54.728Z,966.34
2022-09-27T11:37:53.149Z,966.34
2022-09-27T11:38:54.075Z,966.35
2022-09-27T11:39:53.124Z,966.33
2022-09-27T11:40:53.145Z,966.31
2022-09-27T11:41:53.113Z,966.35
2022-09-27T11:42:53.100Z,966.37
2022-09-27T11:43:53.097Z,966.35
2022-09-27T11:45:07.941Z,966.38
2022-09-27T11:46:16.265Z,966.32
2022-09-27T11:46:54.135Z,966.35
2022-09-27T11:47:53.149Z,966.37
2022-09-27T11:48:53.051Z,966.31
2022-09-27T11:49:53.062Z,966.32
2022-09-27T11:50:53.034Z,966.32
2022-09-27T11:51:53.027Z,966.31
2022-09-27T11:52:53.029Z,966.25
2022-09-27T11:53:53.009Z,966.25
2022-09-27T11:54:53.037Z,966.24
2022-09-27T11:55:53.003Z,966.24
2022-09-27T11:56:52.992Z,966.27
2022-09-27T11:57:52.999Z,966.34
2022-09-27T11:58:52.987Z,966.26
2022-09-27T11:59:52.968Z,966.27
2022-09-27T12:00:52.999Z,966.28
2022-09-27T12:01:52.993Z,966.27
2022-09-27T12:02:52.981Z,966.27
2022-09-27T12:03:52.942Z,966.27
2022-09-27T12:04:52.955Z,966.25
2022-09-27T12:05:58.203Z,966.25
2022-09-27T12:06:53.913Z,966.24
2022-09-27T12:07:52.909Z,966.27
2022-09-27T12:08:52.903Z,966.24
2022-09-27T12:09:52.897Z,966.27
2022-09-27T12:10:52.902Z,966.27
2022-09-27T12:11:52.876Z,966.26
2022-09-27T12:12:52.861Z,966.23
2022-09-27T12:13:52.851Z,966.22
2022-09-27T12:14:52.847Z,966.24
2022-09-27T12:15:52.914Z,966.26
2022-09-27T12:16:52.858Z,966.25
2022-09-27T12:17:59.906Z,966.28
2022-09-27T12:18:52.827Z,966.24
2022-09-27T12:19:52.845Z,966.27
2022-09-27T12:20:52.809Z,966.23
2022-09-27T12:21:52.802Z,966.28
2022-09-27T12:23:00.421Z,966.24
2022-09-27T12:23:53.777Z,966.27
2022-09-27T12:24:52.770Z,966.27
2022-09-27T12:25:52.781Z,966.24
2022-09-27T12:26:52.758Z,966.33
2022-09-27T12:27:52.748Z,966.25
2022-09-27T12:28:52.746Z,966.26